createdAt,value
2019-01-10T00:01:41.307Z,81.17
2019-01-10T00:04:12.573Z,80.90
2019-01-10T00:06:43.321Z,80.00
2019-01-10T00:09:14.208Z,87.10
2019-01-10T00:11:44.660Z,79.47
2019-01-10T00:14:15.063Z,78.83
2019-01-10T00:16:45.727Z,78.27
2019-01-10T00:19:16.476Z,74.23
2019-01-10T00:21:47.177Z,72.43
2019-01-10T00:24:17.715Z,76.03
2019-01-10T00:26:48.272Z,75.37
2019-01-10T00:29:18.732Z,74.10
2019-01-10T00:31:49.314Z,83.23
2019-01-10T00:34:19.766Z,79.73
2019-01-10T00:36:50.739Z,75.13
2019-01-10T00:39:21.246Z,77.53
2019-01-10T00:41:51.842Z,78.77
2019-01-10T00:44:22.641Z,85.23
2019-01-10T00:46:53.375Z,78.47
2019-01-10T00:49:23.896Z,80.80
2019-01-10T00:51:54.642Z,73.73
2019-01-10T00:54:25.424Z,72.83
2019-01-10T00:56:56.067Z,71.57
2019-01-10T00:59:28.101Z,76.03
2019-01-10T01:01:59.011Z,72.70
2019-01-10T01:04:29.964Z,74.23
2019-01-10T01:07:00.676Z,67.53
2019-01-10T01:09:33.180Z,66.00
2019-01-10T01:12:03.711Z,69.77
2019-01-10T01:14:34.302Z,68.60
2019-01-10T01:17:05.057Z,63.53
2019-01-10T01:19:36.199Z,68.30
2019-01-10T01:22:06.727Z,69.47
2019-01-10T01:24:37.299Z,73.23
2019-01-10T01:27:07.867Z,72.10
2019-01-10T01:29:38.677Z,73.77
2019-01-10T01:32:09.581Z,69.40
2019-01-10T01:34:40.150Z,77.87
2019-01-10T01:37:10.734Z,74.67
2019-01-10T01:39:41.463Z,70.60
2019-01-10T01:42:11.866Z,70.77
2019-01-10T01:44:42.814Z,70.00
2019-01-10T01:47:13.412Z,72.83
2019-01-10T01:49:44.317Z,68.87
2019-01-10T01:52:14.851Z,71.17
2019-01-10T01:54:45.976Z,75.77
2019-01-10T01:57:16.405Z,71.97
2019-01-10T01:59:46.905Z,76.67
2019-01-10T02:02:17.543Z,72.03
2019-01-10T02:04:48.409Z,71.23
2019-01-10T02:07:18.936Z,73.60
2019-01-10T02:09:49.531Z,71.23
2019-01-10T02:12:20.110Z,67.87
2019-01-10T02:14:52.018Z,71.03
2019-01-10T02:17:22.664Z,68.90
2019-01-10T02:19:53.700Z,72.13
2019-01-10T02:22:24.280Z,73.37
2019-01-10T02:24:54.972Z,74.70
2019-01-10T02:27:25.722Z,65.60
2019-01-10T02:29:56.486Z,70.63
2019-01-10T02:32:26.944Z,71.60
2019-01-10T02:34:57.523Z,68.30
2019-01-10T02:37:28.099Z,83.90
2019-01-10T02:39:58.891Z,70.40
2019-01-10T02:42:29.933Z,71.83
2019-01-10T02:45:00.626Z,71.97
2019-01-10T02:47:31.275Z,72.00
2019-01-10T02:50:02.197Z,70.43
2019-01-10T02:52:32.975Z,69.17
2019-01-10T02:55:03.417Z,67.90
2019-01-10T02:57:34.749Z,65.53
2019-01-10T03:00:07.413Z,68.80
2019-01-10T03:02:37.999Z,74.97
2019-01-10T03:05:09.126Z,65.97
2019-01-10T03:07:39.585Z,69.20
2019-01-10T03:10:11.743Z,66.33
2019-01-10T03:12:42.279Z,68.57
2019-01-10T03:15:13.617Z,62.20
2019-01-10T03:17:44.320Z,63.97
2019-01-10T03:20:17.585Z,64.97
2019-01-10T03:22:48.061Z,62.53
2019-01-10T03:25:18.761Z,65.90
2019-01-10T03:27:49.189Z,64.07
2019-01-10T03:30:20.739Z,67.57
2019-01-10T03:32:51.236Z,62.10
2019-01-10T03:35:21.927Z,65.10
2019-01-10T03:37:52.868Z,64.30
2019-01-10T03:40:24.041Z,69.40
2019-01-10T03:42:54.523Z,67.90
2019-01-10T03:45:25.085Z,69.03
2019-01-10T03:47:56.072Z,64.80
2019-01-10T03:50:26.581Z,59.10
2019-01-10T03:52:57.459Z,64.90
2019-01-10T03:55:28.217Z,62.93
2019-01-10T03:57:58.746Z,60.87
2019-01-10T04:00:29.789Z,57.40
2019-01-10T04:03:00.394Z,62.00
2019-01-10T04:05:31.046Z,57.90
2019-01-10T04:08:01.452Z,58.03
2019-01-10T04:10:33.212Z,59.77
2019-01-10T04:13:04.113Z,62.57
2019-01-10T04:15:34.636Z,64.67
2019-01-10T04:18:05.576Z,57.20
2019-01-10T04:20:36.121Z,62.60
2019-01-10T04:23:06.683Z,61.03
2019-01-10T04:25:37.339Z,57.57
2019-01-10T04:28:08.319Z,61.87
2019-01-10T04:30:38.926Z,66.13
2019-01-10T04:33:09.796Z,57.53
2019-01-10T04:35:40.315Z,66.70
2019-01-10T04:38:10.899Z,66.90
2019-01-10T04:40:41.445Z,63.47
2019-01-10T04:43:11.947Z,61.33
2019-01-10T04:45:42.679Z,64.53
2019-01-10T04:48:13.311Z,60.37
2019-01-10T04:50:43.939Z,59.33
2019-01-10T04:53:14.446Z,69.80
2019-01-10T04:55:45.175Z,64.03
2019-01-10T04:58:15.899Z,56.40
2019-01-10T05:00:46.665Z,63.07
2019-01-10T05:03:17.369Z,63.57
2019-01-10T05:05:48.412Z,58.37
2019-01-10T05:08:19.213Z,60.47
2019-01-10T05:10:49.985Z,61.83
2019-01-10T05:13:20.703Z,63.10
2019-01-10T05:15:51.373Z,67.47
2019-01-10T05:21:15.157Z,62.73
2019-01-10T05:23:46.125Z,59.93
2019-01-10T05:26:16.752Z,62.97
2019-01-10T05:28:47.254Z,65.20
2019-01-10T05:31:18.098Z,57.23
2019-01-10T05:33:48.699Z,66.00
2019-01-10T05:36:19.385Z,59.13
2019-01-10T05:38:50.755Z,60.70
2019-01-10T05:41:21.238Z,59.93
2019-01-10T05:43:52.388Z,62.67
2019-01-10T05:46:22.973Z,66.97
2019-01-10T05:48:53.990Z,61.63
2019-01-10T05:51:24.587Z,60.63
2019-01-10T05:53:55.137Z,58.77
2019-01-10T05:56:25.925Z,59.10
2019-01-10T05:58:57.470Z,61.27
2019-01-10T06:01:28.123Z,57.97
2019-01-10T06:03:58.822Z,66.30
2019-01-10T06:06:29.904Z,58.37
2019-01-10T06:09:00.436Z,63.30
2019-01-10T06:11:41.343Z,61.37
2019-01-10T06:14:11.753Z,60.90
2019-01-10T06:16:42.755Z,65.20
2019-01-10T06:19:13.183Z,59.47
2019-01-10T06:21:43.817Z,63.07
2019-01-10T06:24:14.297Z,66.27
2019-01-10T06:26:45.223Z,64.80
2019-01-10T06:29:15.847Z,68.87
2019-01-10T06:31:46.389Z,64.17
2019-01-10T06:34:17.127Z,69.73
2019-01-10T06:36:47.594Z,63.70
2019-01-10T06:39:19.766Z,55.10
2019-01-10T06:41:50.438Z,63.33
2019-01-10T06:44:21.602Z,64.60
2019-01-10T06:46:52.558Z,58.80
2019-01-10T06:49:23.161Z,62.73
2019-01-10T06:51:53.761Z,61.33
2019-01-10T06:54:24.358Z,65.10
2019-01-10T06:56:55.526Z,61.47
2019-01-10T06:59:26.567Z,57.90
2019-01-10T07:01:57.542Z,61.97
2019-01-10T07:04:28.270Z,61.43
2019-01-10T07:06:59.643Z,60.10
2019-01-10T07:09:34.588Z,54.93
2019-01-10T07:12:05.270Z,55.23
2019-01-10T07:14:36.092Z,56.80
2019-01-10T07:17:07.248Z,54.70
2019-01-10T07:19:48.028Z,58.93
2019-01-10T07:22:25.056Z,58.57
2019-01-10T07:24:56.671Z,55.10
2019-01-10T07:27:27.546Z,60.57
2019-01-10T07:29:59.659Z,62.07
2019-01-10T07:32:30.861Z,57.77
2019-01-10T07:35:02.800Z,55.43
2019-01-10T07:37:34.893Z,57.37
2019-01-10T07:40:08.732Z,54.30
2019-01-10T07:42:47.893Z,57.43
2019-01-10T07:45:26.092Z,56.37
2019-01-10T07:47:56.929Z,59.43
2019-01-10T07:50:32.905Z,57.13
2019-01-10T07:53:03.885Z,59.27
2019-01-10T07:55:34.916Z,53.70
2019-01-10T07:58:05.751Z,59.00
2019-01-10T08:00:36.665Z,54.50
2019-01-10T08:03:08.790Z,56.77
2019-01-10T08:05:41.161Z,54.20
2019-01-10T08:08:14.935Z,54.70
2019-01-10T08:10:46.030Z,60.53
2019-01-10T08:13:17.264Z,61.57
2019-01-10T08:15:48.207Z,61.63
2019-01-10T08:18:19.291Z,66.80
2019-01-10T08:20:49.882Z,69.83
2019-01-10T08:23:20.458Z,63.87
2019-01-10T08:25:51.081Z,60.80
2019-01-10T08:28:21.810Z,56.73
2019-01-10T08:30:52.836Z,58.00
2019-01-10T08:33:23.414Z,57.57
2019-01-10T08:35:57.508Z,57.23
2019-01-10T08:38:28.080Z,50.97
2019-01-10T08:40:59.077Z,51.17
2019-01-10T08:43:30.056Z,52.57
2019-01-10T08:46:00.730Z,64.87
2019-01-10T08:48:31.594Z,63.77
2019-01-10T08:51:02.297Z,51.77
2019-01-10T08:53:32.942Z,54.37
2019-01-10T08:56:03.563Z,54.13
2019-01-10T08:58:34.556Z,52.30
2019-01-10T09:01:05.240Z,54.67
2019-01-10T09:03:36.215Z,53.07
2019-01-10T09:06:08.178Z,51.93
2019-01-10T09:08:39.067Z,50.73
2019-01-10T09:11:09.857Z,47.33
2019-01-10T09:13:40.592Z,50.30
2019-01-10T09:16:11.533Z,48.30
2019-01-10T09:18:42.577Z,52.97
2019-01-10T09:21:13.467Z,45.07
2019-01-10T09:23:44.728Z,49.73
2019-01-10T09:26:15.621Z,50.80
2019-01-10T09:28:46.467Z,49.63
2019-01-10T09:31:17.077Z,50.50
2019-01-10T09:33:47.832Z,51.53
2019-01-10T09:36:18.567Z,54.10
2019-01-10T09:38:49.471Z,55.30
2019-01-10T09:41:20.071Z,52.20
2019-01-10T09:43:50.836Z,49.50
2019-01-10T09:46:21.457Z,44.73
2019-01-10T09:48:52.421Z,49.83
2019-01-10T09:51:23.089Z,47.33
2019-01-10T09:53:53.655Z,46.33
2019-01-10T09:56:25.131Z,51.37
2019-01-10T09:58:55.718Z,56.43
2019-01-10T10:01:26.265Z,50.10
2019-01-10T10:03:56.930Z,51.17
2019-01-10T10:06:27.486Z,51.50
2019-01-10T10:08:58.368Z,53.50
2019-01-10T10:11:34.073Z,56.63
2019-01-10T10:14:01.020Z,48.50
2019-01-10T10:16:31.490Z,58.53
2019-01-10T10:19:02.028Z,52.37
2019-01-10T10:21:32.996Z,56.10
2019-01-10T10:24:03.904Z,58.13
2019-01-10T10:26:34.870Z,53.60
2019-01-10T10:29:06.337Z,50.77
2019-01-10T10:31:37.061Z,53.00
2019-01-10T10:34:07.888Z,49.87
2019-01-10T10:36:45.697Z,53.30
2019-01-10T10:39:16.610Z,49.80
2019-01-10T10:41:48.068Z,50.47
2019-01-10T10:44:18.889Z,46.93
2019-01-10T10:46:49.544Z,44.97
2019-01-10T10:49:20.690Z,45.17
2019-01-10T10:51:51.446Z,45.53
2019-01-10T10:54:22.172Z,45.47
2019-01-10T10:56:53.000Z,48.10
2019-01-10T10:59:23.948Z,47.17
2019-01-10T11:01:54.576Z,49.87
2019-01-10T11:04:25.196Z,48.27
2019-01-10T11:06:55.679Z,46.90
2019-01-10T11:09:26.349Z,45.50
2019-01-10T11:11:56.885Z,49.70
2019-01-10T11:14:27.756Z,52.67
2019-01-10T11:16:58.550Z,48.73
2019-01-10T11:19:29.383Z,45.67
2019-01-10T11:22:00.069Z,46.87
2019-01-10T11:24:31.107Z,62.33
2019-01-10T11:27:02.038Z,58.53
2019-01-10T11:29:33.641Z,46.87
2019-01-10T11:32:12.912Z,46.23
2019-01-10T11:34:36.621Z,47.33
2019-01-10T11:37:07.713Z,45.00
2019-01-10T11:39:38.717Z,47.67
2019-01-10T11:42:09.900Z,47.47
2019-01-10T11:44:40.658Z,43.60
2019-01-10T11:47:11.527Z,44.03
2019-01-10T11:49:42.369Z,43.13
2019-01-10T11:52:13.251Z,45.43
2019-01-10T11:54:43.902Z,48.77
2019-01-10T11:57:14.454Z,43.17
2019-01-10T11:59:45.094Z,60.73
2019-01-10T12:02:15.872Z,148.30
2019-01-10T12:04:46.620Z,127.27
2019-01-10T12:07:17.260Z,90.93
2019-01-10T12:09:47.957Z,72.53
2019-01-10T12:12:18.931Z,58.17
2019-01-10T12:14:50.011Z,47.77
2019-01-10T12:17:20.466Z,49.50
2019-01-10T12:19:50.919Z,66.70
2019-01-10T12:22:21.688Z,56.87
2019-01-10T12:24:52.282Z,43.10
2019-01-10T12:27:23.364Z,46.73
2019-01-10T12:29:54.212Z,45.67
2019-01-10T12:32:25.113Z,45.17
2019-01-10T12:34:55.979Z,45.00
2019-01-10T12:37:26.916Z,45.13
2019-01-10T12:39:57.932Z,46.50
2019-01-10T12:42:28.528Z,46.30
2019-01-10T12:44:59.224Z,50.27
2019-01-10T12:47:30.056Z,45.30
2019-01-10T12:50:01.644Z,46.20
2019-01-10T12:52:35.226Z,46.63
2019-01-10T12:55:05.193Z,47.67
2019-01-10T12:57:36.169Z,47.50
2019-01-10T13:00:08.567Z,50.00
2019-01-10T13:02:39.189Z,45.53
2019-01-10T13:05:10.265Z,46.33
2019-01-10T13:07:41.549Z,45.80
2019-01-10T13:10:15.159Z,48.63
2019-01-10T13:12:45.973Z,49.97
2019-01-10T13:15:22.206Z,44.33
2019-01-10T13:17:52.938Z,50.07
2019-01-10T13:20:23.923Z,52.47
2019-01-10T13:22:54.594Z,48.83
2019-01-10T13:25:25.731Z,46.80
2019-01-10T13:27:57.318Z,43.67
2019-01-10T13:30:28.720Z,46.07
2019-01-10T13:32:59.497Z,48.77
2019-01-10T13:35:30.462Z,47.83
2019-01-10T13:38:01.340Z,49.43
2019-01-10T13:40:32.081Z,48.43
2019-01-10T13:43:02.784Z,50.07
2019-01-10T13:45:33.719Z,49.13
2019-01-10T13:48:05.026Z,52.77
2019-01-10T13:50:35.706Z,52.80
2019-01-10T13:53:06.650Z,54.53
2019-01-10T13:55:37.469Z,51.97
2019-01-10T13:58:08.116Z,46.97
2019-01-10T14:00:39.256Z,52.47
2019-01-10T14:03:11.737Z,49.90
2019-01-10T14:05:42.417Z,47.17
2019-01-10T14:08:13.344Z,45.63
2019-01-10T14:10:44.007Z,47.17
2019-01-10T14:13:14.661Z,51.97
2019-01-10T14:15:45.902Z,47.80
2019-01-10T14:18:16.332Z,50.27
2019-01-10T14:20:46.833Z,50.90
2019-01-10T14:23:17.705Z,46.17
2019-01-10T14:25:48.431Z,53.33
2019-01-10T14:28:19.697Z,51.60
2019-01-10T14:30:50.412Z,49.40
2019-01-10T14:33:21.320Z,49.73
2019-01-10T14:35:52.395Z,49.77
2019-01-10T14:38:23.389Z,50.27
2019-01-10T14:40:54.586Z,51.87
2019-01-10T14:43:25.361Z,56.73
2019-01-10T14:45:56.993Z,53.10
2019-01-10T14:48:27.922Z,59.60
2019-01-10T14:50:58.743Z,52.97
2019-01-10T14:53:29.329Z,52.23
2019-01-10T14:55:59.879Z,54.57
2019-01-10T14:58:30.525Z,51.00
2019-01-10T15:01:01.175Z,54.70
2019-01-10T15:04:08.051Z,50.30
2019-01-10T15:06:39.015Z,52.37
2019-01-10T15:09:09.898Z,53.43
2019-01-10T15:11:40.825Z,54.63
2019-01-10T15:14:16.156Z,60.17
2019-01-10T15:16:45.297Z,60.17
2019-01-10T15:19:16.220Z,66.50
2019-01-10T15:21:46.762Z,65.37
2019-01-10T15:24:17.642Z,56.30
2019-01-10T15:26:48.576Z,54.43
2019-01-10T15:29:20.223Z,58.43
2019-01-10T15:31:51.586Z,56.57
2019-01-10T15:34:22.854Z,53.13
2019-01-10T15:36:54.854Z,52.97
2019-01-10T15:39:25.852Z,53.50
2019-01-10T15:41:56.624Z,53.63
2019-01-10T15:44:29.224Z,52.03
2019-01-10T15:46:59.621Z,58.20
2019-01-10T15:49:30.226Z,62.27
2019-01-10T15:52:01.170Z,64.60
2019-01-10T15:54:31.843Z,61.90
2019-01-10T15:57:02.766Z,56.73
2019-01-10T15:59:33.671Z,62.83
2019-01-10T16:02:04.845Z,61.07
2019-01-10T16:04:35.423Z,60.57
2019-01-10T16:07:07.747Z,55.37
2019-01-10T16:09:40.243Z,55.50
2019-01-10T16:12:11.077Z,55.17
2019-01-10T16:14:41.663Z,54.27
2019-01-10T16:17:12.431Z,60.07
2019-01-10T16:19:43.403Z,64.60
2019-01-10T16:22:14.042Z,56.97
2019-01-10T16:24:44.887Z,55.47
2019-01-10T16:27:15.703Z,66.57
2019-01-10T16:29:46.411Z,62.40
2019-01-10T16:32:17.205Z,56.67
2019-01-10T16:34:48.079Z,57.83
2019-01-10T16:37:18.658Z,61.33
2019-01-10T16:39:49.211Z,50.00
2019-01-10T16:42:19.651Z,54.70
2019-01-10T16:44:50.298Z,55.83
2019-01-10T16:47:20.866Z,54.87
2019-01-10T16:50:10.734Z,58.95
2019-01-10T16:52:41.396Z,53.30
2019-01-10T16:55:12.982Z,46.47
2019-01-10T16:57:43.587Z,50.00
2019-01-10T17:00:19.058Z,49.93
2019-01-10T17:02:50.101Z,56.60
2019-01-10T17:05:20.942Z,50.53
2019-01-10T17:07:51.838Z,48.20
2019-01-10T17:10:22.857Z,49.10
2019-01-10T17:12:53.417Z,47.40
2019-01-10T17:15:24.040Z,47.93
2019-01-10T17:17:54.756Z,45.37
2019-01-10T17:20:26.338Z,42.50
2019-01-10T17:22:57.462Z,44.07
2019-01-10T17:25:28.278Z,43.07
2019-01-10T17:27:58.998Z,44.93
2019-01-10T17:30:31.474Z,45.17
2019-01-10T17:33:04.074Z,44.97
2019-01-10T17:35:35.152Z,49.87
2019-01-10T17:38:08.225Z,52.13
2019-01-10T17:40:38.876Z,41.83
2019-01-10T17:43:09.714Z,44.53
2019-01-10T17:45:40.241Z,48.07
2019-01-10T17:48:11.567Z,43.83
2019-01-10T17:50:42.333Z,49.97
2019-01-10T17:53:14.103Z,46.47
2019-01-10T17:55:44.837Z,57.43
2019-01-10T17:58:15.524Z,64.13
2019-01-10T18:00:46.327Z,63.50
2019-01-10T18:03:16.996Z,59.87
2019-01-10T18:05:48.435Z,54.40
2019-01-10T18:08:19.020Z,53.83
2019-01-10T18:10:49.785Z,50.93
2019-01-10T18:13:20.255Z,51.30
2019-01-10T18:15:50.807Z,54.53
2019-01-10T18:18:21.350Z,54.10
2019-01-10T18:20:52.034Z,55.77
2019-01-10T18:23:22.743Z,51.73
2019-01-10T18:25:53.409Z,52.70
2019-01-10T18:28:24.138Z,52.27
2019-01-10T18:30:54.869Z,52.50
2019-01-10T18:33:25.491Z,55.87
2019-01-10T18:35:56.689Z,62.13
2019-01-10T18:38:27.648Z,59.43
2019-01-10T18:40:58.241Z,63.57
2019-01-10T18:43:28.792Z,53.00
2019-01-10T18:45:59.536Z,55.53
2019-01-10T18:48:30.342Z,57.40
2019-01-10T18:51:00.953Z,62.50
2019-01-10T18:53:31.598Z,57.50
2019-01-10T18:56:03.750Z,61.07
2019-01-10T18:58:34.470Z,59.37
2019-01-10T19:01:06.270Z,57.07
2019-01-10T19:03:37.080Z,60.93
2019-01-10T19:06:07.748Z,60.97
2019-01-10T19:08:38.476Z,59.07
2019-01-10T19:11:09.320Z,60.30
2019-01-10T19:13:40.068Z,57.77
2019-01-10T19:16:12.005Z,60.70
2019-01-10T19:18:42.637Z,63.43
2019-01-10T19:21:13.397Z,61.97
2019-01-10T19:23:44.090Z,64.10
2019-01-10T19:26:15.684Z,62.50
2019-01-10T19:28:48.119Z,71.13
2019-01-10T19:31:18.988Z,66.37
2019-01-10T19:33:49.615Z,59.37
2019-01-10T19:36:20.640Z,64.77
2019-01-10T19:38:51.317Z,64.83
2019-01-10T19:41:22.262Z,61.70
2019-01-10T19:43:53.191Z,62.10
2019-01-10T19:46:23.889Z,66.17
2019-01-10T19:48:54.823Z,65.40
2019-01-10T19:51:25.629Z,64.03
2019-01-10T19:53:56.437Z,69.70
2019-01-10T19:56:27.111Z,62.83
2019-01-10T19:58:57.817Z,66.30
2019-01-10T20:01:28.367Z,59.67
2019-01-10T20:03:59.021Z,67.47
2019-01-10T20:06:29.833Z,60.37
2019-01-10T20:09:01.083Z,63.33
2019-01-10T20:11:33.666Z,58.60
2019-01-10T20:14:04.342Z,57.37
2019-01-10T20:16:35.138Z,60.17
2019-01-10T20:19:06.352Z,64.90
2019-01-10T20:21:37.104Z,61.90
2019-01-10T20:24:07.873Z,55.53
2019-01-10T20:26:41.600Z,62.93
2019-01-10T20:29:12.326Z,59.50
2019-01-10T20:31:43.354Z,61.20
2019-01-10T20:34:14.429Z,54.60
2019-01-10T20:36:45.586Z,59.20
2019-01-10T20:39:16.238Z,61.33
2019-01-10T20:41:46.974Z,60.80
2019-01-10T20:44:17.914Z,61.40
2019-01-10T20:46:48.631Z,62.47
2019-01-10T20:49:19.382Z,56.87
2019-01-10T20:51:50.048Z,60.13
2019-01-10T20:54:20.782Z,55.67
2019-01-10T20:56:51.597Z,59.23
2019-01-10T20:59:28.664Z,56.87
2019-01-10T21:01:59.335Z,61.17
2019-01-10T21:04:30.373Z,60.37
2019-01-10T21:07:01.022Z,67.00
2019-01-10T21:09:31.907Z,67.30
2019-01-10T21:12:02.563Z,63.67
2019-01-10T21:14:33.477Z,62.70
2019-01-10T21:17:04.487Z,60.73
2019-01-10T21:19:35.056Z,59.53
2019-01-10T21:22:05.852Z,62.37
2019-01-10T21:24:37.186Z,60.40
2019-01-10T21:27:07.841Z,65.03
2019-01-10T21:29:38.438Z,66.90
2019-01-10T21:32:09.307Z,56.47
2019-01-10T21:34:40.119Z,66.30
2019-01-10T21:37:10.743Z,58.97
2019-01-10T21:39:42.249Z,58.03
2019-01-10T21:42:12.868Z,55.20
2019-01-10T21:44:43.551Z,76.47
2019-01-10T21:47:14.066Z,78.23
2019-01-10T21:49:45.820Z,67.43
2019-01-10T21:52:16.505Z,60.40
2019-01-10T21:54:47.526Z,53.93
2019-01-10T21:57:18.416Z,61.47
2019-01-10T21:59:49.232Z,62.97
2019-01-10T22:02:20.066Z,56.33
2019-01-10T22:04:50.642Z,58.10
2019-01-10T22:07:21.290Z,56.10
2019-01-10T22:09:51.804Z,60.83
2019-01-10T22:12:22.672Z,61.23
2019-01-10T22:14:53.208Z,62.83
2019-01-10T22:17:23.894Z,61.97
2019-01-10T22:19:54.424Z,58.80
2019-01-10T22:22:25.030Z,66.90
2019-01-10T22:24:55.574Z,67.17
2019-01-10T22:27:26.272Z,64.70
2019-01-10T22:29:57.097Z,65.57
2019-01-10T22:32:27.624Z,64.97
2019-01-10T22:34:58.182Z,64.03
2019-01-10T22:37:29.252Z,68.60
2019-01-10T22:40:00.394Z,69.67
2019-01-10T22:42:31.127Z,68.33
2019-01-10T22:45:02.071Z,66.10
2019-01-10T22:47:32.777Z,72.93
2019-01-10T22:50:03.683Z,63.20
2019-01-10T22:52:34.957Z,70.50
2019-01-10T22:55:07.529Z,76.83
2019-01-10T22:57:38.039Z,71.37
2019-01-10T23:00:50.614Z,73.07
2019-01-10T23:03:21.731Z,79.07
2019-01-10T23:05:52.247Z,72.43
2019-01-10T23:08:23.369Z,70.67
2019-01-10T23:10:54.239Z,73.17
2019-01-10T23:13:25.137Z,72.70
2019-01-10T23:15:55.669Z,75.13
2019-01-10T23:18:26.393Z,73.07
2019-01-10T23:21:00.159Z,70.97
2019-01-10T23:23:30.676Z,73.80
2019-01-10T23:26:01.432Z,74.77
2019-01-10T23:28:35.140Z,69.77
2019-01-10T23:31:09.836Z,74.13
2019-01-10T23:33:40.554Z,80.03
2019-01-10T23:36:11.334Z,71.53
2019-01-10T23:38:43.220Z,73.50
2019-01-10T23:41:13.728Z,66.07
2019-01-10T23:43:44.266Z,71.50
2019-01-10T23:46:15.166Z,71.17
2019-01-10T23:48:45.678Z,68.30
2019-01-10T23:51:16.284Z,70.10
2019-01-10T23:53:46.736Z,74.17
2019-01-10T23:56:18.290Z,66.73
2019-01-10T23:58:48.863Z,70.00
